Time,TemperatureF,DewpointF,PressureIn,WindDirection,WindDirectionDegrees,WindSpeedMPH,WindSpeedGustMPH,Humidity,HourlyPrecipIn,Conditions,Clouds,dailyrainin,SolarRadiationWatts/m^2,SoftwareType,DateUTC
2013-04-16 00:03:00,17.0,13.0,-100.00,NNW,329,0.0,0.0,85,0.00,,,0.00,0.000000,,2013-04-16 04:03:00,
2013-04-16 00:12:00,17.0,13.0,-100.00,NNW,329,0.0,0.0,85,0.00,,,0.00,0.000000,,2013-04-16 04:12:00,
2013-04-16 00:23:00,17.0,13.0,-100.00,NNW,329,0.0,0.0,85,0.00,,,0.00,0.000000,,2013-04-16 04:23:00,
2013-04-16 00:33:00,17.0,13.0,-100.00,NNW,329,0.0,0.0,85,0.00,,,0.00,0.000000,,2013-04-16 04:33:00,
2013-04-16 01:02:00,16.0,13.0,-100.00,South,190,0.0,0.0,86,0.00,,,0.00,0.000000,,2013-04-16 05:02:00,
2013-04-16 01:12:00,16.0,13.0,-100.00,South,190,0.0,0.0,86,0.00,,,0.00,0.000000,,2013-04-16 05:12:00,
2013-04-16 01:22:00,16.0,13.0,-100.00,South,190,0.0,0.0,86,0.00,,,0.00,0.000000,,2013-04-16 05:22:00,
2013-04-16 01:32:00,16.0,13.0,-100.00,South,190,0.0,0.0,86,0.00,,,0.00,0.000000,,2013-04-16 05:32:00,
2013-04-16 02:02:00,16.0,11.0,-100.00,WNW,296,0.0,0.0,81,0.00,,,0.00,0.000000,,2013-04-16 06:02:00,
2013-04-16 02:12:00,16.0,11.0,-100.00,WNW,296,0.0,0.0,81,0.00,,,0.00,0.000000,,2013-04-16 06:12:00,
2013-04-16 02:22:00,16.0,11.0,-100.00,WNW,296,0.0,0.0,81,0.00,,,0.00,0.000000,,2013-04-16 06:22:00,
2013-04-16 02:32:00,16.0,11.0,-100.00,WNW,296,0.0,0.0,81,0.00,,,0.00,0.000000,,2013-04-16 06:32:00,
2013-04-16 03:02:00,13.0,9.0,-100.00,NNW,338,0.0,0.0,83,0.00,,,0.00,0.000000,,2013-04-16 07:02:00,
2013-04-16 03:12:00,13.0,9.0,-100.00,NNW,338,0.0,0.0,83,0.00,,,0.00,0.000000,,2013-04-16 07:12:00,
2013-04-16 03:22:00,13.0,9.0,-100.00,NNW,338,0.0,0.0,83,0.00,,,0.00,0.000000,,2013-04-16 07:22:00,
2013-04-16 03:32:00,13.0,9.0,-100.00,NNW,338,0.0,0.0,83,0.00,,,0.00,0.000000,,2013-04-16 07:32:00,
2013-04-16 04:02:00,10.0,4.0,-100.00,ENE,57,0.0,0.0,76,0.00,,,0.00,0.000000,,2013-04-16 08:02:00,
2013-04-16 04:12:00,10.0,4.0,-100.00,ENE,57,0.0,0.0,76,0.00,,,0.00,0.000000,,2013-04-16 08:12:00,
2013-04-16 04:22:00,10.0,4.0,-100.00,ENE,57,0.0,0.0,76,0.00,,,0.00,0.000000,,2013-04-16 08:22:00,
2013-04-16 04:32:00,10.0,4.0,-100.00,ENE,57,0.0,0.0,76,0.00,,,0.00,0.000000,,2013-04-16 08:32:00,
2013-04-16 05:02:00,12.0,8.0,-100.00,SE,128,0.0,0.0,84,0.00,,,0.00,0.000000,,2013-04-16 09:02:00,
2013-04-16 05:12:00,12.0,8.0,-100.00,SE,128,0.0,0.0,84,0.00,,,0.00,0.000000,,2013-04-16 09:12:00,
2013-04-16 05:22:00,12.0,8.0,-100.00,SE,128,0.0,0.0,84,0.00,,,0.00,0.000000,,2013-04-16 09:22:00,
2013-04-16 05:33:00,12.0,8.0,-100.00,SE,128,0.0,0.0,84,0.00,,,0.00,0.000000,,2013-04-16 09:33:00,
2013-04-16 06:03:00,13.0,9.0,-100.00,West,263,0.0,0.0,85,0.00,,,0.00,0.000000,,2013-04-16 10:03:00,
2013-04-16 06:13:00,13.0,9.0,-100.00,West,263,0.0,0.0,85,0.00,,,0.00,0.000000,,2013-04-16 10:13:00,
2013-04-16 06:23:00,13.0,9.0,-100.00,West,263,0.0,0.0,85,0.00,,,0.00,0.000000,,2013-04-16 10:23:00,
2013-04-16 06:33:00,13.0,9.0,-100.00,West,263,0.0,0.0,85,0.00,,,0.00,0.000000,,2013-04-16 10:33:00,
2013-04-16 07:02:00,15.0,12.0,-100.00,SSW,202,0.0,0.0,88,0.00,,,0.00,0.000000,,2013-04-16 11:02:00,
2013-04-16 07:12:00,15.0,12.0,-100.00,SSW,202,0.0,0.0,88,0.00,,,0.00,0.000000,,2013-04-16 11:12:00,
2013-04-16 07:22:00,15.0,12.0,-100.00,SSW,202,0.0,0.0,88,0.00,,,0.00,0.000000,,2013-04-16 11:22:00,
2013-04-16 07:32:00,15.0,12.0,-100.00,SSW,202,0.0,0.0,88,0.00,,,0.00,0.000000,,2013-04-16 11:32:00,
2013-04-16 08:02:00,15.0,11.0,-100.00,SE,138,0.0,0.0,85,0.00,,,0.00,0.000000,,2013-04-16 12:02:00,
2013-04-16 08:12:00,15.0,11.0,-100.00,SE,138,0.0,0.0,85,0.00,,,0.00,0.000000,,2013-04-16 12:12:00,
2013-04-16 08:22:00,15.0,11.0,-100.00,SE,138,0.0,0.0,85,0.00,,,0.00,0.000000,,2013-04-16 12:22:00,
2013-04-16 08:32:00,15.0,11.0,-100.00,SE,138,0.0,0.0,85,0.00,,,0.00,0.000000,,2013-04-16 12:32:00,
2013-04-16 09:02:00,15.0,11.0,-100.00,NNE,28,0.0,0.0,84,0.00,,,0.00,5.000000,,2013-04-16 13:02:00,
2013-04-16 09:12:00,15.0,11.0,-100.00,NNE,28,0.0,0.0,84,0.00,,,0.00,5.000000,,2013-04-16 13:12:00,
2013-04-16 09:22:00,15.0,11.0,-100.00,NNE,28,0.0,0.0,84,0.00,,,0.00,5.000000,,2013-04-16 13:22:00,
2013-04-16 09:32:00,15.0,11.0,-100.00,NNE,28,0.0,0.0,84,0.00,,,0.00,5.000000,,2013-04-16 13:32:00,
2013-04-16 10:02:00,17.0,11.0,-100.00,SW,231,0.0,0.0,78,0.00,,,0.00,55.000000,,2013-04-16 14:02:00,
2013-04-16 10:12:00,17.0,11.0,-100.00,SW,231,0.0,0.0,78,0.00,,,0.00,55.000000,,2013-04-16 14:12:00,
2013-04-16 10:22:00,17.0,11.0,-100.00,SW,231,0.0,0.0,78,0.00,,,0.00,55.000000,,2013-04-16 14:22:00,
2013-04-16 10:32:00,17.0,11.0,-100.00,SW,231,0.0,0.0,78,0.00,,,0.00,55.000000,,2013-04-16 14:32:00,
2013-04-16 11:02:00,17.0,10.0,-100.00,NNE,32,0.0,0.0,74,0.00,,,0.00,87.000000,,2013-04-16 15:02:00,
2013-04-16 11:12:00,17.0,10.0,-100.00,NNE,32,0.0,0.0,74,0.00,,,0.00,87.000000,,2013-04-16 15:12:00,
2013-04-16 11:22:00,17.0,10.0,-100.00,NNE,32,0.0,0.0,74,0.00,,,0.00,87.000000,,2013-04-16 15:22:00,
2013-04-16 11:33:00,17.0,10.0,-100.00,NNE,32,0.0,0.0,74,0.00,,,0.00,87.000000,,2013-04-16 15:33:00,
2013-04-16 12:03:00,20.0,12.0,-100.00,ENE,77,0.0,0.0,70,0.00,,,0.00,124.000000,,2013-04-16 16:03:00,
2013-04-16 12:13:00,20.0,12.0,-100.00,ENE,77,0.0,0.0,70,0.00,,,0.00,124.000000,,2013-04-16 16:13:00,
2013-04-16 12:23:00,20.0,12.0,-100.00,ENE,77,0.0,0.0,70,0.00,,,0.00,124.000000,,2013-04-16 16:23:00,
2013-04-16 12:32:00,20.0,12.0,-100.00,ENE,77,0.0,0.0,70,0.00,,,0.00,124.000000,,2013-04-16 16:32:00,
2013-04-16 13:02:00,22.0,12.0,-100.00,ESE,108,0.0,0.0,64,0.00,,,0.00,206.000000,,2013-04-16 17:02:00,
2013-04-16 13:12:00,22.0,12.0,-100.00,ESE,108,0.0,0.0,64,0.00,,,0.00,206.000000,,2013-04-16 17:12:00,
2013-04-16 13:22:00,22.0,12.0,-100.00,ESE,108,0.0,0.0,64,0.00,,,0.00,206.000000,,2013-04-16 17:22:00,
2013-04-16 13:32:00,22.0,12.0,-100.00,ESE,108,0.0,0.0,64,0.00,,,0.00,206.000000,,2013-04-16 17:32:00,
2013-04-16 14:02:00,22.0,12.0,-100.00,ENE,76,0.0,0.0,65,0.02,,,0.02,323.000000,,2013-04-16 18:02:00,
2013-04-16 14:12:00,22.0,12.0,-100.00,ENE,76,0.0,0.0,65,0.02,,,0.02,323.000000,,2013-04-16 18:12:00,
2013-04-16 14:22:00,22.0,12.0,-100.00,ENE,76,0.0,0.0,65,0.02,,,0.02,323.000000,,2013-04-16 18:22:00,
2013-04-16 14:32:00,22.0,12.0,-100.00,ENE,76,0.0,0.0,65,0.02,,,0.02,323.000000,,2013-04-16 18:32:00,
2013-04-16 15:02:00,24.0,13.0,-100.00,East,93,0.0,0.0,61,0.02,,,0.04,392.000000,,2013-04-16 19:02:00,
2013-04-16 15:12:00,24.0,13.0,-100.00,East,93,0.0,0.0,61,0.02,,,0.04,392.000000,,2013-04-16 19:12:00,
2013-04-16 15:22:00,24.0,13.0,-100.00,East,93,0.0,0.0,61,0.02,,,0.04,392.000000,,2013-04-16 19:22:00,
2013-04-16 15:32:00,24.0,13.0,-100.00,East,93,0.0,0.0,61,0.02,,,0.04,392.000000,,2013-04-16 19:32:00,
2013-04-16 16:02:00,25.0,14.0,-100.00,East,90,0.0,0.0,62,0.02,,,0.06,513.000000,,2013-04-16 20:02:00,
2013-04-16 16:12:00,25.0,14.0,-100.00,East,90,0.0,0.0,62,0.02,,,0.06,513.000000,,2013-04-16 20:12:00,
2013-04-16 16:22:00,25.0,14.0,-100.00,East,90,0.0,0.0,62,0.02,,,0.06,513.000000,,2013-04-16 20:22:00,
2013-04-16 16:32:00,25.0,14.0,-100.00,East,90,0.0,0.0,62,0.02,,,0.06,513.000000,,2013-04-16 20:32:00,
2013-04-16 17:02:00,23.0,12.0,-100.00,East,81,0.0,0.0,63,0.00,,,0.06,565.000000,,2013-04-16 21:02:00,
2013-04-16 17:12:00,23.0,12.0,-100.00,East,81,0.0,0.0,63,0.00,,,0.06,565.000000,,2013-04-16 21:12:00,
2013-04-16 17:22:00,23.0,12.0,-100.00,East,81,0.0,0.0,63,0.00,,,0.06,565.000000,,2013-04-16 21:22:00,
2013-04-16 17:32:00,23.0,12.0,-100.00,East,81,0.0,0.0,63,0.00,,,0.06,565.000000,,2013-04-16 21:32:00,
2013-04-16 18:03:00,20.0,13.0,-100.00,North,360,0.0,0.0,74,0.00,,,0.06,263.000000,,2013-04-16 22:03:00,
2013-04-16 18:13:00,20.0,13.0,-100.00,North,360,0.0,0.0,74,0.00,,,0.06,263.000000,,2013-04-16 22:13:00,
2013-04-16 18:22:00,20.0,13.0,-100.00,North,360,0.0,0.0,74,0.00,,,0.06,263.000000,,2013-04-16 22:22:00,
2013-04-16 18:33:00,20.0,13.0,-100.00,North,360,0.0,0.0,74,0.00,,,0.06,263.000000,,2013-04-16 22:33:00,
2013-04-16 19:02:00,18.0,12.0,-100.00,East,83,0.0,0.0,76,0.00,,,0.06,108.000000,,2013-04-16 23:02:00,
2013-04-16 19:12:00,18.0,12.0,-100.00,East,83,0.0,0.0,76,0.00,,,0.06,108.000000,,2013-04-16 23:12:00,
2013-04-16 19:22:00,18.0,12.0,-100.00,East,83,0.0,0.0,76,0.00,,,0.06,108.000000,,2013-04-16 23:22:00,
2013-04-16 19:32:00,18.0,12.0,-100.00,East,83,0.0,0.0,76,0.00,,,0.06,108.000000,,2013-04-16 23:32:00,
2013-04-16 20:02:00,18.0,12.0,-100.00,NE,39,0.0,0.0,76,0.00,,,0.06,88.000000,,2013-04-17 00:02:00,
2013-04-16 20:12:00,18.0,12.0,-100.00,NE,39,0.0,0.0,76,0.00,,,0.06,88.000000,,2013-04-17 00:12:00,
2013-04-16 20:22:00,18.0,12.0,-100.00,NE,39,0.0,0.0,76,0.00,,,0.06,88.000000,,2013-04-17 00:22:00,
2013-04-16 20:32:00,18.0,12.0,-100.00,NE,39,0.0,0.0,76,0.00,,,0.06,88.000000,,2013-04-17 00:32:00,
2013-04-16 21:02:00,16.0,11.0,-100.00,NNE,14,0.0,0.0,79,0.00,,,0.06,42.000000,,2013-04-17 01:02:00,
2013-04-16 21:12:00,16.0,11.0,-100.00,NNE,14,0.0,0.0,79,0.00,,,0.06,42.000000,,2013-04-17 01:12:00,
2013-04-16 21:22:00,16.0,11.0,-100.00,NNE,14,0.0,0.0,79,0.00,,,0.06,42.000000,,2013-04-17 01:22:00,
2013-04-16 21:32:00,16.0,11.0,-100.00,NNE,14,0.0,0.0,79,0.00,,,0.06,42.000000,,2013-04-17 01:32:00,
2013-04-16 22:02:00,15.0,10.0,-100.00,NNE,12,0.0,0.0,81,0.00,,,0.06,13.000000,,2013-04-17 02:02:00,
2013-04-16 22:12:00,15.0,10.0,-100.00,NNE,12,0.0,0.0,81,0.00,,,0.06,13.000000,,2013-04-17 02:12:00,
2013-04-16 22:22:00,15.0,10.0,-100.00,NNE,12,0.0,0.0,81,0.00,,,0.06,13.000000,,2013-04-17 02:22:00,
2013-04-16 22:32:00,15.0,10.0,-100.00,NNE,12,0.0,0.0,81,0.00,,,0.06,13.000000,,2013-04-17 02:32:00,
2013-04-16 23:02:00,15.0,11.0,-100.00,North,4,0.0,0.0,83,0.00,,,0.06,1.000000,,2013-04-17 03:02:00,
2013-04-16 23:12:00,15.0,11.0,-100.00,North,4,0.0,0.0,83,0.00,,,0.06,1.000000,,2013-04-17 03:12:00,
2013-04-16 23:22:00,15.0,11.0,-100.00,North,4,0.0,0.0,83,0.00,,,0.06,1.000000,,2013-04-17 03:22:00,
2013-04-16 23:33:00,15.0,11.0,-100.00,North,4,0.0,0.0,83,0.00,,,0.06,1.000000,,2013-04-17 03:33:00,